map of KASJ home
KASJ - Airport
Location
City:  Ahoskie, North Carolina, United States
Name:Tri-County Airport
ICAO:KASJ
FAA LID:ASJ

Details
Type:Airport (Airfield)
Use:Public/Civil
Latitude:3617'51"N (36.297528)
Longitude:7710'15"W (-77.170860)
Datum:WGS 1984
Elevation:66 ft (20 m)
Variation:10.26W (WMM2015 magnetic declination)
-0.03 annual change
Runways:1
Longest:4501 × 75 ft (1372 × 23 m), paved

Time
Time Zone:UTC-5 (DST-4)
Local Time:

Weather
METAR:KASJ 130620Z AUTO 00000KT 10SM CLR M03/M03 A3024 RMK AO2 T10261026

Related Locations
Nearby:
Farthest:YAUG: 11734 mi / 18884 km
Augusta [Augusta Airport], WA, AU

Find:

   beyond  
but within

Other Information
Maps:
NOTAMs:
Links:
Sources:

  
  • flag of United States
  • flag of North Carolina
  

Sectional Chart

Flight Planning
at skyvector.com

Satellite Image

Google Maps Satellite view

 

Copyright © 2004-2018 Karl L. Swartz. All rights reserved.
The Great Circle Mapper name and logo are trademarks of the Great Circle Mapper.
All other trademarks mentioned herein belong to their respective owners.
Please see credits for attibutions and further copyright information.

  Follow gcmap on Facebook Follow gcmap on Twitter Follow gcmap on Google+ GCmap on LinkedIn

hCard Microformat

Geo Microformat